This is the latest recevied weather packets stored in our database for station/object DK0GS-10. If no packets are shown the sender has not sent any weather packets the latest 10 day(s).
| Time | Temp. | Humidity | Pressure | Rain* | Wind** | Luminosity | Snow |
|---|---|---|---|---|---|---|---|
| 1777883146 | 15.56° C | 72% | 1012.8 hPa | 0 mm | - | - | - |
| 1777877721 | 15° C | 72% | 1012.1 hPa | 0 mm | - | - | - |
| 1777877121 | 15° C | 72% | 1012.1 hPa | 0 mm | - | - | - |
| 1777876560 | 14.44° C | 72% | 1012 hPa | 0 mm | - | - | - |
| 1777874721 | 14.44° C | 71% | 1011.8 hPa | 0 mm | - | - | - |
| 1777870523 | 13.89° C | 72% | 1011.5 hPa | 0 mm | - | - | - |
| 1777869973 | 13.89° C | 72% | 1011.4 hPa | 0 mm | - | - | - |
| 1777867523 | 13.33° C | 73% | 1011.3 hPa | 0 mm | - | - | - |
| 1777862123 | 14.44° C | 71% | 1011.2 hPa | 0 mm | - | - | - |
| 1777860323 | 14.44° C | 70% | 1011.3 hPa | 0 mm | - | - | - |
| 1777858537 | 14.44° C | 71% | 1011 hPa | 0 mm | - | - | - |
| 1777854323 | 14.44° C | 70% | 1011 hPa | 0 mm | - | - | - |
| 1777850122 | 16.11° C | 64% | 1011.1 hPa | 0 mm | - | - | - |
| 1777849522 | 16.11° C | 62% | 1011.1 hPa | 0 mm | - | - | - |
| 1777845322 | 17.22° C | 61% | 1011.6 hPa | 0 mm | - | - | - |
| 1777840536 | 18.33° C | 52% | 1011 hPa | 0 mm | - | - | - |
| 1777836922 | 17.22° C | 54% | 1010.8 hPa | 0 mm | - | - | - |
| 1777836322 | 17.22° C | 54% | 1010.4 hPa | 0 mm | - | - | - |
| 1777835722 | 17.78° C | 53% | 1010 hPa | 0 mm | - | - | - |
| 1777830922 | 20° C | 43% | 1009.5 hPa | 0 mm | - | - | - |
| 1777824947 | 21.11° C | 44% | 1009.4 hPa | 0 mm | - | - | - |
| 1777822572 | 21.11° C | 42% | 1009.6 hPa | 0 mm | - | - | - |
| 1777821361 | 21.67° C | 40% | 1009.7 hPa | 0 mm | - | - | - |
| 1777817723 | 21.11° C | 45% | 1010 hPa | 0 mm | - | - | - |
| 1777815322 | 21.11° C | 44% | 1010.3 hPa | 0 mm | - | - | - |
* Rain latest hour (hover to see other rain measurements)
** Current wind speed in m/s (hover to see current wind gust speed)